Whiteman Air Force Base
KSZL : now visible

Airfield :











YOU CAN JOIN US ON...

 
LOGIN :

Register | Disclaimer

   EN    FR    IT 

 









Legend :    VFR   Marginal VFR   IFR   Intensive IFR   Very Intensive IFR
Visi :
Ceiling :
>= 8 km
>= 3000ft
5 to 8 km
1000 to 3000 ft
1500m to 5 km
500 to 1000 ft
800 to 1500m
200 to 500 ft
< 800m
< 200 ft
Symbols :   Thunderstorms  Fog  Heavy snow  Heavy precipitations  Wind > 20 kt






- Airport Elevation : 870 ft


KSZL - Whiteman Air Force Base

CURRENT METAR :
  • 080656Z 18006KT 10SM FEW150 02/02 A2999 RMK AO2A SLP163 T00160015 $

EXPIRED METARs :
  • 080556Z AUTO 17008KT 10SM CLR 03/01 A3001 RMK AO2 SLP170 T00320008 10035 20028 400921061 $

TAF TAF KSZL
Valid from the 08 at 03:00 until the 09 at 09:00 UTC


080300Z 0803/0909 16009KT 9999 SKC QNH2994INS
BECMG 0811/0812 19009KT 9999 BKN030 QNH2993INS
BECMG 0813/0814 19009KT 9999 OVC010 QNH2989INS
BECMG 0816/0817 33010G15KT 8000 -SHRA OVC010 QNH2973INS TX09/0818Z TN02/0804Z



MET'MAP, your aeronautical weather chart ! - Copyright ORBIFLY December 2007 - Disclaimer

ORBIFLY MET'MAP TEAM :

Programming & Development : Alexandra Zaïnal
Concept & original design : Baudouin d'Aumeries
Assistance for programming : Marc-Olivier Méhu
Technical & hardware support : Manuel Goepfert

Contact : metmap@orbifly.com




SOURCES & CREDITS :

   NOAA       Earth
Advisory